sensor_id;sensor_type;location;lat;lon;timestamp;pressure;altitude;pressure_sealevel;temperature;humidity
8581;BME280;4328;48.622;9.230;2024-01-30T00:02:26;99400.78;;;-0.32;94.59
8581;BME280;4328;48.622;9.230;2024-01-30T00:04:53;99393.16;;;-0.39;94.88
8581;BME280;4328;48.622;9.230;2024-01-30T00:07:19;99394.97;;;-0.39;94.83
8581;BME280;4328;48.622;9.230;2024-01-30T00:09:46;99386.69;;;-0.34;95.07
8581;BME280;4328;48.622;9.230;2024-01-30T00:12:12;99384.63;;;-0.29;95.22
8581;BME280;4328;48.622;9.230;2024-01-30T00:14:41;99386.59;;;-0.33;94.96
8581;BME280;4328;48.622;9.230;2024-01-30T00:17:08;99376.72;;;-0.31;94.98
8581;BME280;4328;48.622;9.230;2024-01-30T00:19:36;99386.34;;;-0.28;95.44
8581;BME280;4328;48.622;9.230;2024-01-30T00:22:02;99391.59;;;-0.27;95.47
8581;BME280;4328;48.622;9.230;2024-01-30T00:24:28;99394.25;;;-0.27;95.37
8581;BME280;4328;48.622;9.230;2024-01-30T00:26:55;99390.44;;;-0.23;95.44
8581;BME280;4328;48.622;9.230;2024-01-30T00:29:21;99393.09;;;-0.23;95.89
8581;BME280;4328;48.622;9.230;2024-01-30T00:31:48;99383.91;;;-0.17;95.84
8581;BME280;4328;48.622;9.230;2024-01-30T00:34:15;99387.19;;;-0.12;95.77
8581;BME280;4328;48.622;9.230;2024-01-30T00:36:42;99380.13;;;-0.13;95.60
8581;BME280;4328;48.622;9.230;2024-01-30T00:39:09;99384.31;;;-0.09;95.48
8581;BME280;4328;48.622;9.230;2024-01-30T00:41:36;99385.09;;;-0.07;95.88
8581;BME280;4328;48.622;9.230;2024-01-30T00:44:03;99378.13;;;-0.10;95.26
8581;BME280;4328;48.622;9.230;2024-01-30T00:46:29;99388.69;;;-0.08;95.07
8581;BME280;4328;48.622;9.230;2024-01-30T00:48:56;99383.28;;;-0.07;94.48
8581;BME280;4328;48.622;9.230;2024-01-30T00:51:22;99389.72;;;-0.11;94.51
8581;BME280;4328;48.622;9.230;2024-01-30T00:53:50;99392.59;;;-0.14;94.14
8581;BME280;4328;48.622;9.230;2024-01-30T00:56:16;99388.22;;;-0.15;94.52
8581;BME280;4328;48.622;9.230;2024-01-30T00:58:44;99388.22;;;-0.15;94.62
8581;BME280;4328;48.622;9.230;2024-01-30T01:01:10;99315.13;;;-0.56;94.35
8581;BME280;4328;48.622;9.230;2024-01-30T01:03:37;99385.16;;;-0.09;94.44
8581;BME280;4328;48.622;9.230;2024-01-30T01:06:05;99382.59;;;-0.10;94.75
8581;BME280;4328;48.622;9.230;2024-01-30T01:08:32;99385.25;;;-0.10;94.59
8581;BME280;4328;48.622;9.230;2024-01-30T01:10:59;99379.84;;;-0.09;94.71
8581;BME280;4328;48.622;9.230;2024-01-30T01:13:26;99389.47;;;-0.06;94.54
8581;BME280;4328;48.622;9.230;2024-01-30T01:15:52;99385.94;;;-0.07;94.50
8581;BME280;4328;48.622;9.230;2024-01-30T01:18:19;99392.06;;;-0.05;94.13
8581;BME280;4328;48.622;9.230;2024-01-30T01:20:45;99384.22;;;-0.08;94.24
8581;BME280;4328;48.622;9.230;2024-01-30T01:23:11;99380.00;;;-0.12;93.85
8581;BME280;4328;48.622;9.230;2024-01-30T01:25:38;99383.66;;;-0.13;93.51
8581;BME280;4328;48.622;9.230;2024-01-30T01:28:06;99386.31;;;-0.13;93.66
8581;BME280;4328;48.622;9.230;2024-01-30T01:30:32;99379.94;;;-0.10;93.80
8581;BME280;4328;48.622;9.230;2024-01-30T01:32:58;99378.91;;;-0.08;93.62
8581;BME280;4328;48.622;9.230;2024-01-30T01:35:27;99379.50;;;-0.03;93.30
8581;BME280;4328;48.622;9.230;2024-01-30T01:37:54;99378.53;;;-0.02;93.28
8581;BME280;4328;48.622;9.230;2024-01-30T01:40:20;99380.28;;;-0.01;93.17
8581;BME280;4328;48.622;9.230;2024-01-30T01:42:47;99378.47;;;0.00;93.37
8581;BME280;4328;48.622;9.230;2024-01-30T01:45:15;99384.75;;;-0.01;93.25
8581;BME280;4328;48.622;9.230;2024-01-30T01:47:41;99377.00;;;-0.06;93.07
8581;BME280;4328;48.622;9.230;2024-01-30T01:50:08;99377.88;;;-0.05;92.96
8581;BME280;4328;48.622;9.230;2024-01-30T01:52:34;99377.94;;;-0.07;93.11
8581;BME280;4328;48.622;9.230;2024-01-30T01:55:00;99381.47;;;-0.06;93.15
8581;BME280;4328;48.622;9.230;2024-01-30T01:57:27;99380.00;;;-0.12;92.84
8581;BME280;4328;48.622;9.230;2024-01-30T01:59:53;99383.75;;;-0.14;93.13
8581;BME280;4328;48.622;9.230;2024-01-30T02:02:23;99384.94;;;-0.20;92.93
8581;BME280;4328;48.622;9.230;2024-01-30T02:04:52;99385.41;;;-0.27;93.01
8581;BME280;4328;48.622;9.230;2024-01-30T02:07:19;99381.09;;;-0.30;92.98
8581;BME280;4328;48.622;9.230;2024-01-30T02:09:46;99382.81;;;-0.29;93.17
8581;BME280;4328;48.622;9.230;2024-01-30T02:12:13;99382.81;;;-0.29;93.39
8581;BME280;4328;48.622;9.230;2024-01-30T02:14:44;99380.75;;;-0.24;93.79
8581;BME280;4328;48.622;9.230;2024-01-30T02:17:11;99386.09;;;-0.24;93.90
8581;BME280;4328;48.622;9.230;2024-01-30T02:19:39;99381.88;;;-0.28;94.03
8581;BME280;4328;48.622;9.230;2024-01-30T02:22:07;99390.97;;;-0.32;93.77
8581;BME280;4328;48.622;9.230;2024-01-30T02:24:34;99385.16;;;-0.39;93.50
8581;BME280;4328;48.622;9.230;2024-01-30T02:27:00;99382.56;;;-0.40;93.73
8581;BME280;4328;48.622;9.230;2024-01-30T02:29:26;99387.91;;;-0.40;94.20
8581;BME280;4328;48.622;9.230;2024-01-30T02:31:53;99383.53;;;-0.41;94.39
8581;BME280;4328;48.622;9.230;2024-01-30T02:34:19;99384.38;;;-0.41;94.12
8581;BME280;4328;48.622;9.230;2024-01-30T02:36:46;99386.09;;;-0.40;94.41
8581;BME280;4328;48.622;9.230;2024-01-30T02:39:14;99385.16;;;-0.39;94.70
8581;BME280;4328;48.622;9.230;2024-01-30T02:41:40;99382.41;;;-0.37;94.44
8581;BME280;4328;48.622;9.230;2024-01-30T02:44:06;99380.69;;;-0.38;94.57
8581;BME280;4328;48.622;9.230;2024-01-30T02:46:33;99381.47;;;-0.36;94.65
8581;BME280;4328;48.622;9.230;2024-01-30T02:48:59;99380.88;;;-0.41;94.30
8581;BME280;4328;48.622;9.230;2024-01-30T02:51:26;99372.94;;;-0.43;94.52
8581;BME280;4328;48.622;9.230;2024-01-30T02:53:52;99369.50;;;-0.45;94.62
8581;BME280;4328;48.622;9.230;2024-01-30T02:56:20;99376.56;;;-0.44;94.97
8581;BME280;4328;48.622;9.230;2024-01-30T02:58:46;99381.19;;;-0.47;94.57
8581;BME280;4328;48.622;9.230;2024-01-30T03:01:12;99379.66;;;-0.51;94.39
8581;BME280;4328;48.622;9.230;2024-01-30T03:03:39;99379.16;;;-0.58;94.50
8581;BME280;4328;48.622;9.230;2024-01-30T03:06:05;99378.66;;;-0.64;94.40
8581;BME280;4328;48.622;9.230;2024-01-30T03:08:32;99383.97;;;-0.64;94.37
8581;BME280;4328;48.622;9.230;2024-01-30T03:10:59;99383.03;;;-0.63;94.66
8581;BME280;4328;48.622;9.230;2024-01-30T03:13:27;99374.75;;;-0.59;95.12
8581;BME280;4328;48.622;9.230;2024-01-30T03:15:54;99379.25;;;-0.59;94.99
8581;BME280;4328;48.622;9.230;2024-01-30T03:18:20;99377.53;;;-0.60;95.11
8581;BME280;4328;48.622;9.230;2024-01-30T03:20:47;99379.69;;;-0.67;95.06
8581;BME280;4328;48.622;9.230;2024-01-30T03:23:13;99383.13;;;-0.65;95.29
8581;BME280;4328;48.622;9.230;2024-01-30T03:25:40;99381.31;;;-0.64;95.25
8581;BME280;4328;48.622;9.230;2024-01-30T03:28:06;99376.16;;;-0.67;95.18
8581;BME280;4328;48.622;9.230;2024-01-30T03:30:35;99380.53;;;-0.66;95.00
8581;BME280;4328;48.622;9.230;2024-01-30T03:33:02;99385.00;;;-0.67;95.32
8581;BME280;4328;48.622;9.230;2024-01-30T03:35:28;99384.16;;;-0.67;95.21
8581;BME280;4328;48.622;9.230;2024-01-30T03:37:54;99384.22;;;-0.69;95.28
8581;BME280;4328;48.622;9.230;2024-01-30T03:40:21;99380.53;;;-0.66;95.40
8581;BME280;4328;48.622;9.230;2024-01-30T03:42:47;99377.00;;;-0.67;95.32
8581;BME280;4328;48.622;9.230;2024-01-30T03:45:14;99379.19;;;-0.74;95.54
8581;BME280;4328;48.622;9.230;2024-01-30T03:47:44;99380.19;;;-0.76;95.42
8581;BME280;4328;48.622;9.230;2024-01-30T03:50:10;99384.81;;;-0.80;95.20
8581;BME280;4328;48.622;9.230;2024-01-30T03:52:37;99384.25;;;-0.85;94.93
8581;BME280;4328;48.622;9.230;2024-01-30T03:55:04;99378.84;;;-0.83;95.20
8581;BME280;4328;48.622;9.230;2024-01-30T03:57:30;99387.75;;;-0.84;95.21
8581;BME280;4328;48.622;9.230;2024-01-30T03:59:57;99391.78;;;-0.93;95.38
8581;BME280;4328;48.622;9.230;2024-01-30T04:02:23;99395.56;;;-0.97;95.44
8581;BME280;4328;48.622;9.230;2024-01-30T04:04:51;99395.56;;;-0.97;95.38
8581;BME280;4328;48.622;9.230;2024-01-30T04:07:17;99394.78;;;-0.99;95.41
8581;BME280;4328;48.622;9.230;2024-01-30T04:09:44;99396.84;;;-1.04;95.26
8581;BME280;4328;48.622;9.230;2024-01-30T04:12:10;99399.75;;;-1.08;95.45
8581;BME280;4328;48.622;9.230;2024-01-30T04:14:37;99398.72;;;-1.06;95.51
8581;BME280;4328;48.622;9.230;2024-01-30T04:17:04;99399.84;;;-1.10;95.55
8581;BME280;4328;48.622;9.230;2024-01-30T04:19:30;99392.81;;;-1.11;95.63
8581;BME280;4328;48.622;9.230;2024-01-30T04:21:58;99391.78;;;-1.08;95.74
8581;BME280;4328;48.622;9.230;2024-01-30T04:24:24;99393.75;;;-1.12;95.82
8581;BME280;4328;48.622;9.230;2024-01-30T04:26:50;99390.31;;;-1.14;95.60
8581;BME280;4328;48.622;9.230;2024-01-30T04:29:17;99384.03;;;-1.13;95.66
8581;BME280;4328;48.622;9.230;2024-01-30T04:31:44;99392.25;;;-1.18;95.46
8581;BME280;4328;48.622;9.230;2024-01-30T04:34:10;99391.50;;;-1.20;95.41
8581;BME280;4328;48.622;9.230;2024-01-30T04:36:37;99382.75;;;-1.22;95.33
8581;BME280;4328;48.622;9.230;2024-01-30T04:39:05;99387.19;;;-1.22;95.51
8581;BME280;4328;48.622;9.230;2024-01-30T04:41:31;99389.16;;;-1.26;95.62
8581;BME280;4328;48.622;9.230;2024-01-30T04:43:59;99395.34;;;-1.25;96.03
8581;BME280;4328;48.622;9.230;2024-01-30T04:46:25;99395.19;;;-1.22;95.98
8581;BME280;4328;48.622;9.230;2024-01-30T04:48:51;99391.97;;;-1.29;96.10
8581;BME280;4328;48.622;9.230;2024-01-30T04:51:18;99399.97;;;-1.29;95.98
8581;BME280;4328;48.622;9.230;2024-01-30T04:53:44;99398.28;;;-1.30;96.22
8581;BME280;4328;48.622;9.230;2024-01-30T04:56:12;99406.25;;;-1.30;96.31
8581;BME280;4328;48.622;9.230;2024-01-30T04:58:38;99401.94;;;-1.32;96.41
8581;BME280;4328;48.622;9.230;2024-01-30T05:01:04;99401.00;;;-1.31;96.55
8581;BME280;4328;48.622;9.230;2024-01-30T05:03:32;99401.75;;;-1.29;96.31
8581;BME280;4328;48.622;9.230;2024-01-30T05:05:59;99399.09;;;-1.29;96.56
8581;BME280;4328;48.622;9.230;2024-01-30T05:08:25;99406.34;;;-1.31;96.27
8581;BME280;4328;48.622;9.230;2024-01-30T05:10:51;99401.31;;;-1.37;96.41
8581;BME280;4328;48.622;9.230;2024-01-30T05:13:19;99410.41;;;-1.41;96.09
8581;BME280;4328;48.622;9.230;2024-01-30T05:15:45;99415.28;;;-1.50;96.05
8581;BME280;4328;48.622;9.230;2024-01-30T05:18:12;99407.13;;;-1.47;96.24
8581;BME280;4328;48.622;9.230;2024-01-30T05:20:38;99406.97;;;-1.43;96.50
8581;BME280;4328;48.622;9.230;2024-01-30T05:23:05;99409.31;;;-1.37;96.61
8581;BME280;4328;48.622;9.230;2024-01-30T05:25:31;99398.66;;;-1.37;96.89
8581;BME280;4328;48.622;9.230;2024-01-30T05:27:58;99410.31;;;-1.40;96.65
8581;BME280;4328;48.622;9.230;2024-01-30T05:30:26;99407.72;;;-1.41;96.53
8581;BME280;4328;48.622;9.230;2024-01-30T05:32:52;99406.50;;;-1.52;96.41
8581;BME280;4328;48.622;9.230;2024-01-30T05:35:18;99405.97;;;-1.58;96.23
8581;BME280;4328;48.622;9.230;2024-01-30T05:37:46;99406.78;;;-1.56;96.29
8581;BME280;4328;48.622;9.230;2024-01-30T05:40:12;99405.97;;;-1.58;96.35
8581;BME280;4328;48.622;9.230;2024-01-30T05:42:39;99419.19;;;-1.57;96.46
8581;BME280;4328;48.622;9.230;2024-01-30T05:45:05;99413.03;;;-1.57;96.48
8581;BME280;4328;48.622;9.230;2024-01-30T05:47:34;99407.63;;;-1.56;96.71
8581;BME280;4328;48.622;9.230;2024-01-30T05:50:01;99414.25;;;-1.47;96.73
8581;BME280;4328;48.622;9.230;2024-01-30T05:52:28;99412.31;;;-1.43;96.81
8581;BME280;4328;48.622;9.230;2024-01-30T05:54:54;99416.50;;;-1.39;97.04
8581;BME280;4328;48.622;9.230;2024-01-30T05:57:21;99420.09;;;-1.40;97.10
8581;BME280;4328;48.622;9.230;2024-01-30T05:59:47;99417.44;;;-1.40;96.64
8581;BME280;4328;48.622;9.230;2024-01-30T06:02:13;99412.22;;;-1.42;96.73
8581;BME280;4328;48.622;9.230;2024-01-30T06:04:41;99411.19;;;-1.39;96.75
8581;BME280;4328;48.622;9.230;2024-01-30T06:07:09;99412.22;;;-1.42;96.75
8581;BME280;4328;48.622;9.230;2024-01-30T06:09:35;99419.34;;;-1.42;96.53
8581;BME280;4328;48.622;9.230;2024-01-30T06:12:03;99418.28;;;-1.40;96.39
8581;BME280;4328;48.622;9.230;2024-01-30T06:14:30;99412.81;;;-1.37;96.51
8581;BME280;4328;48.622;9.230;2024-01-30T06:16:57;99419.25;;;-1.41;96.31
8581;BME280;4328;48.622;9.230;2024-01-30T06:19:24;99409.72;;;-1.45;96.19
8581;BME280;4328;48.622;9.230;2024-01-30T06:21:51;99411.53;;;-1.46;96.40
8581;BME280;4328;48.622;9.230;2024-01-30T06:24:18;99419.56;;;-1.47;96.57
8581;BME280;4328;48.622;9.230;2024-01-30T06:26:44;99417.84;;;-1.48;96.49
8581;BME280;4328;48.622;9.230;2024-01-30T06:29:11;99421.22;;;-1.44;96.29
8581;BME280;4328;48.622;9.230;2024-01-30T06:31:39;99421.38;;;-1.48;96.70
8581;BME280;4328;48.622;9.230;2024-01-30T06:34:06;99424.91;;;-1.47;96.40
8581;BME280;4328;48.622;9.230;2024-01-30T06:36:32;99417.69;;;-1.45;96.25
8581;BME280;4328;48.622;9.230;2024-01-30T06:39:00;99422.16;;;-1.46;96.54
8581;BME280;4328;48.622;9.230;2024-01-30T06:41:27;99421.91;;;-1.41;96.64
8581;BME280;4328;48.622;9.230;2024-01-30T06:43:53;99419.00;;;-1.36;96.60
8581;BME280;4328;48.622;9.230;2024-01-30T06:46:19;99423.97;;;-1.46;96.21
8581;BME280;4328;48.622;9.230;2024-01-30T06:48:46;99423.69;;;-1.41;96.32
8581;BME280;4328;48.622;9.230;2024-01-30T06:51:12;99423.19;;;-1.48;96.28
8581;BME280;4328;48.622;9.230;2024-01-30T06:53:38;99427.78;;;-1.52;96.20
8581;BME280;4328;48.622;9.230;2024-01-30T06:56:07;99426.84;;;-1.51;96.15
8581;BME280;4328;48.622;9.230;2024-01-30T06:58:34;99431.06;;;-1.47;96.38
8581;BME280;4328;48.622;9.230;2024-01-30T07:01:00;99424.91;;;-1.47;96.59
8581;BME280;4328;48.622;9.230;2024-01-30T07:03:27;99427.16;;;-1.39;96.66
8581;BME280;4328;48.622;9.230;2024-01-30T07:05:53;99425.19;;;-1.36;96.66
8581;BME280;4328;48.622;9.230;2024-01-30T07:08:20;99434.41;;;-1.26;96.66
8581;BME280;4328;48.622;9.230;2024-01-30T07:10:47;99436.81;;;-1.21;96.84
8581;BME280;4328;48.622;9.230;2024-01-30T07:13:15;99431.88;;;-1.12;96.61
8581;BME280;4328;48.622;9.230;2024-01-30T07:15:41;99441.84;;;-0.99;96.67
8581;BME280;4328;48.622;9.230;2024-01-30T07:18:08;99449.09;;;-0.86;96.16
8581;BME280;4328;48.622;9.230;2024-01-30T07:20:35;99447.72;;;-0.77;95.62
8581;BME280;4328;48.622;9.230;2024-01-30T07:23:01;99436.22;;;-0.62;94.98
8581;BME280;4328;48.622;9.230;2024-01-30T07:25:28;99434.22;;;-0.43;94.83
8581;BME280;4328;48.622;9.230;2024-01-30T07:27:54;99433.94;;;-0.22;93.74
8581;BME280;4328;48.622;9.230;2024-01-30T07:30:22;99439.78;;;0.00;92.27
8581;BME280;4328;48.622;9.230;2024-01-30T07:32:49;99444.16;;;0.31;91.10
8581;BME280;4328;48.622;9.230;2024-01-30T07:35:16;99436.44;;;0.70;89.87
8581;BME280;4328;48.622;9.230;2024-01-30T07:37:42;99433.94;;;1.10;87.99
8581;BME280;4328;48.622;9.230;2024-01-30T07:40:09;99427.72;;;1.38;85.51
8581;BME280;4328;48.622;9.230;2024-01-30T07:42:35;99429.72;;;1.49;83.59
8581;BME280;4328;48.622;9.230;2024-01-30T07:45:02;99423.09;;;1.54;82.28
8581;BME280;4328;48.622;9.230;2024-01-30T07:47:29;99428.94;;;1.47;80.31
8581;BME280;4328;48.622;9.230;2024-01-30T07:49:56;99425.72;;;1.41;80.12
8581;BME280;4328;48.622;9.230;2024-01-30T07:52:22;99429.63;;;1.36;80.44
8581;BME280;4328;48.622;9.230;2024-01-30T07:54:49;99436.03;;;1.33;80.37
8581;BME280;4328;48.622;9.230;2024-01-30T07:57:15;99434.66;;;1.55;80.21
8581;BME280;4328;48.622;9.230;2024-01-30T07:59:41;99436.06;;;1.74;79.38
8581;BME280;4328;48.622;9.230;2024-01-30T08:02:09;99432.06;;;1.94;78.80
8581;BME280;4328;48.622;9.230;2024-01-30T08:04:36;99432.41;;;2.02;78.41
8581;BME280;4328;48.622;9.230;2024-01-30T08:07:03;99431.38;;;2.17;78.17
8581;BME280;4328;48.622;9.230;2024-01-30T08:09:29;99437.56;;;2.45;77.34
8581;BME280;4328;48.622;9.230;2024-01-30T08:11:56;99426.66;;;2.73;76.75
8581;BME280;4328;48.622;9.230;2024-01-30T08:14:22;99423.66;;;2.90;75.24
8581;BME280;4328;48.622;9.230;2024-01-30T08:16:48;99425.47;;;3.03;74.47
8581;BME280;4328;48.622;9.230;2024-01-30T08:19:15;99425.88;;;3.22;73.54
8581;BME280;4328;48.622;9.230;2024-01-30T08:21:43;99420.03;;;3.53;73.57
8581;BME280;4328;48.622;9.230;2024-01-30T08:24:10;99408.75;;;4.09;71.94
8581;BME280;4328;48.622;9.230;2024-01-30T08:26:36;99406.38;;;4.74;70.40
8581;BME280;4328;48.622;9.230;2024-01-30T08:29:03;99403.59;;;5.65;68.19
8581;BME280;4328;48.622;9.230;2024-01-30T08:31:30;99410.25;;;6.77;65.55
8581;BME280;4328;48.622;9.230;2024-01-30T08:33:56;99394.59;;;8.31;61.22
8581;BME280;4328;48.622;9.230;2024-01-30T08:36:25;99383.06;;;9.52;57.28
8581;BME280;4328;48.622;9.230;2024-01-30T08:38:53;99386.81;;;10.13;55.47
8581;BME280;4328;48.622;9.230;2024-01-30T08:41:19;99392.03;;;10.60;54.25
8581;BME280;4328;48.622;9.230;2024-01-30T08:43:45;99377.28;;;11.32;52.44
8581;BME280;4328;48.622;9.230;2024-01-30T08:46:11;99381.72;;;12.34;50.12
8581;BME280;4328;48.622;9.230;2024-01-30T08:48:38;99370.09;;;13.29;47.77
8581;BME280;4328;48.622;9.230;2024-01-30T08:51:05;99315.47;;;13.30;46.35
8581;BME280;4328;48.622;9.230;2024-01-30T08:53:34;99370.94;;;14.84;44.78
8581;BME280;4328;48.622;9.230;2024-01-30T08:56:02;99376.19;;;15.38;43.12
8581;BME280;4328;48.622;9.230;2024-01-30T08:58:29;99372.97;;;15.57;41.99
8581;BME280;4328;48.622;9.230;2024-01-30T09:00:56;99367.34;;;15.50;41.81
8581;BME280;4328;48.622;9.230;2024-01-30T09:03:22;99371.41;;;14.88;42.52
8581;BME280;4328;48.622;9.230;2024-01-30T09:05:49;99381.72;;;14.32;42.86
8581;BME280;4328;48.622;9.230;2024-01-30T09:08:15;99382.91;;;12.88;45.24
8581;BME280;4328;48.622;9.230;2024-01-30T09:10:41;99394.63;;;12.40;47.10
8581;BME280;4328;48.622;9.230;2024-01-30T09:13:10;99394.66;;;12.48;46.70
8581;BME280;4328;48.622;9.230;2024-01-30T09:15:37;99387.84;;;12.44;47.26
8581;BME280;4328;48.622;9.230;2024-01-30T09:18:04;99399.03;;;12.41;47.35
8581;BME280;4328;48.622;9.230;2024-01-30T09:20:33;99393.06;;;12.21;47.71
8581;BME280;4328;48.622;9.230;2024-01-30T09:22:59;99394.84;;;11.88;47.92
8581;BME280;4328;48.622;9.230;2024-01-30T09:25:25;99406.53;;;11.46;49.06
8581;BME280;4328;48.622;9.230;2024-01-30T09:27:52;99403.78;;;11.38;49.11
8581;BME280;4328;48.622;9.230;2024-01-30T09:30:20;99402.59;;;11.75;49.47
8581;BME280;4328;48.622;9.230;2024-01-30T09:32:47;99396.19;;;12.91;47.10
8581;BME280;4328;48.622;9.230;2024-01-30T09:35:13;99391.75;;;14.08;45.39
8581;BME280;4328;48.622;9.230;2024-01-30T09:37:39;99386.81;;;15.03;43.87
8581;BME280;4328;48.622;9.230;2024-01-30T09:40:06;99395.78;;;15.27;42.76
8581;BME280;4328;48.622;9.230;2024-01-30T09:42:33;99388.50;;;15.04;43.11
8581;BME280;4328;48.622;9.230;2024-01-30T09:45:01;99388.50;;;15.04;43.01
8581;BME280;4328;48.622;9.230;2024-01-30T09:47:29;99379.28;;;15.58;42.20
8581;BME280;4328;48.622;9.230;2024-01-30T09:49:56;99380.41;;;16.14;41.38
8581;BME280;4328;48.622;9.230;2024-01-30T09:52:24;99391.53;;;15.09;42.45
8581;BME280;4328;48.622;9.230;2024-01-30T09:54:51;99402.63;;;14.48;43.20
8581;BME280;4328;48.622;9.230;2024-01-30T09:57:18;99396.66;;;13.27;45.50
8581;BME280;4328;48.622;9.230;2024-01-30T09:59:44;99401.13;;;13.20;46.07
8581;BME280;4328;48.622;9.230;2024-01-30T10:02:10;99399.06;;;13.30;46.56
8581;BME280;4328;48.622;9.230;2024-01-30T10:04:38;99395.41;;;13.93;46.42
8581;BME280;4328;48.622;9.230;2024-01-30T10:07:04;99395.75;;;14.52;45.48
8581;BME280;4328;48.622;9.230;2024-01-30T10:09:32;99397.31;;;14.92;44.89
8581;BME280;4328;48.622;9.230;2024-01-30T10:11:59;99393.41;;;14.71;44.45
8581;BME280;4328;48.622;9.230;2024-01-30T10:14:26;99398.88;;;14.71;44.69
8581;BME280;4328;48.622;9.230;2024-01-30T10:16:52;99390.31;;;14.52;44.83
8581;BME280;4328;48.622;9.230;2024-01-30T10:19:18;99384.31;;;14.56;44.65
8581;BME280;4328;48.622;9.230;2024-01-30T10:21:47;99392.88;;;14.22;45.09
8581;BME280;4328;48.622;9.230;2024-01-30T10:24:13;99392.47;;;14.02;45.71
8581;BME280;4328;48.622;9.230;2024-01-30T10:26:39;99386.28;;;13.78;46.35
8581;BME280;4328;48.622;9.230;2024-01-30T10:29:06;99389.63;;;13.49;47.25
8581;BME280;4328;48.622;9.230;2024-01-30T10:31:32;99393.31;;;12.84;47.72
8581;BME280;4328;48.622;9.230;2024-01-30T10:33:58;99391.41;;;12.52;48.90
8581;BME280;4328;48.622;9.230;2024-01-30T10:36:26;99394.25;;;12.18;49.60
8581;BME280;4328;48.622;9.230;2024-01-30T10:38:56;99390.75;;;11.84;50.63
8581;BME280;4328;48.622;9.230;2024-01-30T10:41:26;99395.03;;;11.61;51.03
8581;BME280;4328;48.622;9.230;2024-01-30T10:43:54;99395.44;;;11.32;51.86
8581;BME280;4328;48.622;9.230;2024-01-30T10:46:23;99389.25;;;10.96;52.90
8581;BME280;4328;48.622;9.230;2024-01-30T10:48:54;99388.25;;;10.97;54.23
8581;BME280;4328;48.622;9.230;2024-01-30T10:51:23;99393.03;;;11.03;53.88
8581;BME280;4328;48.622;9.230;2024-01-30T10:53:50;99382.34;;;11.35;53.59
8581;BME280;4328;48.622;9.230;2024-01-30T10:56:18;99378.56;;;11.54;52.89
8581;BME280;4328;48.622;9.230;2024-01-30T10:58:46;99378.13;;;11.67;52.87
8581;BME280;4328;48.622;9.230;2024-01-30T11:01:13;99372.31;;;11.62;53.29
8581;BME280;4328;48.622;9.230;2024-01-30T11:03:40;99368.41;;;11.64;52.84
8581;BME280;4328;48.622;9.230;2024-01-30T11:06:10;99368.16;;;11.83;52.39
8581;BME280;4328;48.622;9.230;2024-01-30T11:08:37;99364.81;;;12.06;52.47
8581;BME280;4328;48.622;9.230;2024-01-30T11:11:03;99362.66;;;12.25;51.97
8581;BME280;4328;48.622;9.230;2024-01-30T11:13:35;99369.44;;;12.29;51.94
8581;BME280;4328;48.622;9.230;2024-01-30T11:16:01;99363.00;;;12.14;51.75
8581;BME280;4328;48.622;9.230;2024-01-30T11:18:28;99363.47;;;12.10;52.59
8581;BME280;4328;48.622;9.230;2024-01-30T11:20:55;99364.81;;;11.98;52.75
8581;BME280;4328;48.622;9.230;2024-01-30T11:23:22;99364.31;;;11.60;54.48
8581;BME280;4328;48.622;9.230;2024-01-30T11:25:48;99367.16;;;11.50;54.53
8581;BME280;4328;48.622;9.230;2024-01-30T11:28:15;99369.28;;;11.31;54.85
8581;BME280;4328;48.622;9.230;2024-01-30T11:30:43;99370.19;;;11.47;55.11
8581;BME280;4328;48.622;9.230;2024-01-30T11:33:10;99370.00;;;11.07;56.16
8581;BME280;4328;48.622;9.230;2024-01-30T11:35:37;99367.78;;;11.10;56.22
8581;BME280;4328;48.622;9.230;2024-01-30T11:38:05;99363.63;;;10.98;57.26
8581;BME280;4328;48.622;9.230;2024-01-30T11:40:32;99365.84;;;10.95;57.78
8581;BME280;4328;48.622;9.230;2024-01-30T11:42:59;99365.66;;;10.70;58.45
8581;BME280;4328;48.622;9.230;2024-01-30T11:45:26;99360.63;;;11.01;57.64
8581;BME280;4328;48.622;9.230;2024-01-30T11:47:54;99358.94;;;11.34;57.57
8581;BME280;4328;48.622;9.230;2024-01-30T11:50:21;99355.00;;;11.63;56.93
8581;BME280;4328;48.622;9.230;2024-01-30T11:52:47;99357.72;;;11.71;56.52
8581;BME280;4328;48.622;9.230;2024-01-30T11:55:14;99345.63;;;11.91;56.16
8581;BME280;4328;48.622;9.230;2024-01-30T11:57:41;99345.94;;;12.04;55.58
8581;BME280;4328;48.622;9.230;2024-01-30T12:00:13;99338.78;;;11.87;55.87
8581;BME280;4328;48.622;9.230;2024-01-30T12:02:40;99339.69;;;12.20;55.47
8581;BME280;4328;48.622;9.230;2024-01-30T12:05:08;99340.91;;;12.34;54.53
8581;BME280;4328;48.622;9.230;2024-01-30T12:07:35;99325.25;;;12.27;54.34
8581;BME280;4328;48.622;9.230;2024-01-30T12:10:01;99319.16;;;12.25;54.08
8581;BME280;4328;48.622;9.230;2024-01-30T12:12:28;99323.84;;;11.83;55.33
8581;BME280;4328;48.622;9.230;2024-01-30T12:14:55;99325.81;;;11.73;55.71
8581;BME280;4328;48.622;9.230;2024-01-30T12:17:26;99321.69;;;11.52;56.99
8581;BME280;4328;48.622;9.230;2024-01-30T12:20:02;99316.69;;;11.82;56.69
8581;BME280;4328;48.622;9.230;2024-01-30T12:22:30;99308.25;;;12.01;56.57
8581;BME280;4328;48.622;9.230;2024-01-30T12:24:57;99313.69;;;12.01;56.32
8581;BME280;4328;48.622;9.230;2024-01-30T12:27:23;99315.06;;;12.13;56.20
8581;BME280;4328;48.622;9.230;2024-01-30T12:29:55;99306.06;;;12.37;55.77
8581;BME280;4328;48.622;9.230;2024-01-30T12:32:22;99299.59;;;12.46;55.67
8581;BME280;4328;48.622;9.230;2024-01-30T12:34:48;99316.44;;;12.34;56.14
8581;BME280;4328;48.622;9.230;2024-01-30T12:37:15;99300.63;;;12.45;55.86
8581;BME280;4328;48.622;9.230;2024-01-30T12:39:46;99302.47;;;12.28;56.80
8581;BME280;4328;48.622;9.230;2024-01-30T12:42:12;99303.16;;;12.30;56.67
8581;BME280;4328;48.622;9.230;2024-01-30T12:44:39;99294.84;;;12.48;56.67
8581;BME280;4328;48.622;9.230;2024-01-30T12:47:06;99287.00;;;12.61;56.31
8581;BME280;4328;48.622;9.230;2024-01-30T12:49:34;99288.09;;;13.08;55.79
8581;BME280;4328;48.622;9.230;2024-01-30T12:52:01;99283.63;;;13.62;54.60
8581;BME280;4328;48.622;9.230;2024-01-30T12:54:27;99279.25;;;14.52;52.83
8581;BME280;4328;48.622;9.230;2024-01-30T12:56:55;99277.50;;;15.77;50.13
8581;BME280;4328;48.622;9.230;2024-01-30T12:59:22;99272.25;;;17.16;47.80
8581;BME280;4328;48.622;9.230;2024-01-30T13:01:49;99270.88;;;17.33;46.29
8581;BME280;4328;48.622;9.230;2024-01-30T13:04:15;99270.00;;;17.74;45.71
8581;BME280;4328;48.622;9.230;2024-01-30T13:06:42;99270.88;;;17.75;44.95
8581;BME280;4328;48.622;9.230;2024-01-30T13:09:08;99271.03;;;17.25;45.45
8581;BME280;4328;48.622;9.230;2024-01-30T13:11:35;99267.69;;;16.68;46.39
8581;BME280;4328;48.622;9.230;2024-01-30T13:14:03;99270.69;;;16.73;46.75
8581;BME280;4328;48.622;9.230;2024-01-30T13:16:29;99275.66;;;16.63;47.28
8581;BME280;4328;48.622;9.230;2024-01-30T13:18:56;99281.91;;;16.35;47.44
8581;BME280;4328;48.622;9.230;2024-01-30T13:21:23;99269.09;;;16.14;47.71